Time;durP1;ratioP1;P1;durP2;ratioP2;P2;SDS_P1;SDS_P2;PMS_P1;PMS_P2;Temp;Humidity;BMP_temperature;BMP_pressure;BME280_temperature;BME280_humidity;BME280_pressure;Samples;Min_cycle;Max_cycle;Signal;HPM_P1;HPM_P2
2022/09/02 00:00:53;;;;;;;10.10;9.60;;;;;;;18.83;100.00;100963.72;5081049;28;20217;-63
2022/09/02 00:03:19;;;;;;;9.93;9.52;;;;;;;18.88;100.00;100966.56;5074690;28;20020;-62
2022/09/02 00:05:45;;;;;;;9.88;9.48;;;;;;;18.95;100.00;100972.69;5077336;28;20020;-63
2022/09/02 00:08:11;;;;;;;10.00;9.60;;;;;;;18.89;100.00;100984.34;5091179;28;20036;-62
2022/09/02 00:10:40;;;;;;;9.77;9.38;;;;;;;18.99;100.00;100976.59;5094609;28;20061;-63
2022/09/02 00:13:08;;;;;;;9.90;9.50;;;;;;;18.86;100.00;100988.28;5093462;28;20115;-63
2022/09/02 00:15:34;;;;;;;10.20;9.70;;;;;;;18.89;100.00;100990.53;5086199;28;20024;-63
2022/09/02 00:18:00;;;;;;;10.05;9.60;;;;;;;18.80;100.00;100989.13;5035880;28;20412;-63
2022/09/02 00:20:28;;;;;;;10.20;9.70;;;;;;;18.67;100.00;100995.44;5086458;28;20069;-63
2022/09/02 00:22:55;;;;;;;9.70;9.30;;;;;;;18.70;100.00;100983.44;5073886;28;20155;-62
2022/09/02 00:25:22;;;;;;;10.20;9.70;;;;;;;18.83;100.00;100985.22;5073978;28;20731;-62
2022/09/02 00:27:48;;;;;;;9.90;9.50;;;;;;;18.73;100.00;100983.84;5081880;28;20360;-62
2022/09/02 00:30:14;;;;;;;10.10;9.60;;;;;;;18.75;100.00;100989.00;5080331;28;20024;-62
2022/09/02 00:32:39;;;;;;;9.80;9.40;;;;;;;18.70;100.00;100986.13;5094132;28;20027;-63
2022/09/02 00:35:05;;;;;;;10.30;9.80;;;;;;;18.67;100.00;100997.31;5081364;28;20032;-63
2022/09/02 00:37:31;;;;;;;10.27;9.77;;;;;;;18.59;100.00;100995.69;5082308;28;20035;-63
2022/09/02 00:39:56;;;;;;;10.00;9.50;;;;;;;18.44;100.00;101005.88;5073534;28;20513;-62
2022/09/02 00:42:24;;;;;;;10.10;9.60;;;;;;;18.52;100.00;101008.31;5087402;28;20359;-62
2022/09/02 00:44:50;;;;;;;9.85;9.45;;;;;;;18.42;100.00;101008.75;5073619;28;20023;-61
2022/09/02 00:47:16;;;;;;;10.10;9.60;;;;;;;18.44;100.00;101003.22;5077645;28;20032;-62
2022/09/02 00:49:47;;;;;;;10.18;9.68;;;;;;;18.42;100.00;101006.09;5092670;28;20048;-62
2022/09/02 00:52:28;;;;;;;9.70;9.30;;;;;;;18.29;100.00;101005.31;5084371;28;20490;-62
2022/09/02 00:55:11;;;;;;;10.35;9.85;;;;;;;18.36;100.00;101020.41;5072387;28;20123;-62
2022/09/02 00:57:41;;;;;;;9.60;9.20;;;;;;;18.42;100.00;101021.38;5090359;28;20031;-63
2022/09/02 01:00:17;;;;;;;9.40;9.00;;;;;;;18.33;100.00;101020.81;5073531;28;20016;-62
2022/09/02 01:02:47;;;;;;;10.18;9.68;;;;;;;18.33;100.00;101025.34;5064161;28;20392;-62
2022/09/02 01:05:16;;;;;;;9.75;9.35;;;;;;;18.21;100.00;101026.03;5084239;28;20063;-62
2022/09/02 01:07:43;;;;;;;9.63;9.23;;;;;;;18.19;100.00;101027.25;5073124;28;20030;-62
2022/09/02 01:10:13;;;;;;;9.80;9.40;;;;;;;18.25;100.00;101034.47;5081517;28;20077;-62
2022/09/02 01:12:39;;;;;;;9.80;9.40;;;;;;;18.17;100.00;101023.97;5078976;28;20039;-63
2022/09/02 01:15:08;;;;;;;10.02;9.52;;;;;;;18.21;100.00;101017.13;5073158;28;20476;-63
2022/09/02 01:17:34;;;;;;;10.20;9.70;;;;;;;18.20;100.00;101027.03;5074241;28;20103;-63
2022/09/02 01:20:10;;;;;;;9.80;9.40;;;;;;;18.22;100.00;101026.84;5080812;28;20032;-62
2022/09/02 01:22:37;;;;;;;9.80;9.40;;;;;;;18.17;100.00;101032.84;5073238;28;20040;-62
2022/09/02 01:25:08;;;;;;;9.43;9.02;;;;;;;18.13;100.00;101025.44;5077690;28;20109;-63
2022/09/02 01:27:34;;;;;;;9.70;9.30;;;;;;;18.09;100.00;101021.53;5067647;28;20024;-62
2022/09/02 01:30:00;;;;;;;9.82;9.43;;;;;;;17.99;100.00;101027.31;5065073;28;20403;-62
2022/09/02 01:32:28;;;;;;;10.13;9.63;;;;;;;18.08;100.00;101018.03;5071750;28;20043;-63
2022/09/02 01:34:54;;;;;;;9.60;9.20;;;;;;;17.98;100.00;101027.53;5088053;28;20049;-63
2022/09/02 01:37:20;;;;;;;10.20;9.70;;;;;;;17.88;100.00;101036.03;5092807;28;20128;-62
2022/09/02 01:39:46;;;;;;;10.05;9.55;;;;;;;17.78;100.00;101038.34;5077859;28;20032;-62
2022/09/02 01:42:12;;;;;;;10.40;9.90;;;;;;;17.76;100.00;101035.03;5075563;28;20021;-62
2022/09/02 01:44:42;;;;;;;10.10;9.60;;;;;;;17.73;100.00;101040.81;5074046;28;20017;-62
2022/09/02 01:47:13;;;;;;;10.60;10.10;;;;;;;17.60;100.00;101045.13;5072215;28;20040;-63
2022/09/02 01:49:38;;;;;;;10.18;9.68;;;;;;;17.68;100.00;101057.50;5071987;28;20059;-62
2022/09/02 01:52:04;;;;;;;10.13;9.63;;;;;;;17.69;100.00;101057.28;5077868;28;20017;-63
2022/09/02 01:54:29;;;;;;;10.00;9.50;;;;;;;17.65;100.00;101048.03;5081018;28;20032;-62
2022/09/02 01:56:55;;;;;;;10.10;9.60;;;;;;;17.65;100.00;101055.25;5070147;28;20060;-62
2022/09/02 01:59:21;;;;;;;10.10;9.60;;;;;;;17.68;100.00;101068.25;5078561;28;20029;-63
2022/09/02 02:01:46;;;;;;;10.20;9.70;;;;;;;17.64;100.00;101057.13;5071936;28;20392;-61
2022/09/02 02:04:12;;;;;;;10.27;9.77;;;;;;;17.54;100.00;101051.31;5065416;28;20024;-63
2022/09/02 02:06:43;;;;;;;10.20;9.70;;;;;;;17.51;100.00;101064.34;5077753;28;20025;-63
2022/09/02 02:09:10;;;;;;;10.30;9.80;;;;;;;17.54;100.00;101062.06;5073646;28;20065;-62
2022/09/02 02:11:37;;;;;;;10.10;9.60;;;;;;;17.54;100.00;101063.91;5083165;28;20034;-63
2022/09/02 02:14:03;;;;;;;9.82;9.43;;;;;;;17.56;100.00;101065.38;5074329;28;20157;-63
2022/09/02 02:16:29;;;;;;;10.40;9.90;;;;;;;17.50;100.00;101060.84;5078705;28;20028;-63
2022/09/02 02:18:54;;;;;;;10.20;9.70;;;;;;;17.36;100.00;101054.66;5086441;28;20230;-62
2022/09/02 02:21:20;;;;;;;10.35;9.85;;;;;;;17.44;100.00;101060.84;5088329;28;20433;-62
2022/09/02 02:23:46;;;;;;;9.80;9.40;;;;;;;17.44;100.00;101060.84;5091990;28;20556;-63
2022/09/02 02:26:12;;;;;;;10.20;9.70;;;;;;;17.28;100.00;101073.63;5078212;28;20031;-62
2022/09/02 02:28:37;;;;;;;10.18;9.68;;;;;;;17.25;100.00;101081.25;5082235;28;20173;-63
2022/09/02 02:31:04;;;;;;;10.20;9.70;;;;;;;17.32;100.00;101082.91;5086190;28;20332;-63
2022/09/02 02:33:29;;;;;;;10.10;9.60;;;;;;;17.45;100.00;101081.25;5082701;28;20391;-63
2022/09/02 02:35:55;;;;;;;10.27;9.77;;;;;;;17.40;100.00;101082.69;5089965;28;20024;-62
2022/09/02 02:38:21;;;;;;;10.25;9.75;;;;;;;17.43;100.00;101086.84;5092231;28;20043;-65
2022/09/02 02:40:47;;;;;;;9.90;9.50;;;;;;;17.33;100.00;101089.94;5073660;28;20028;-62
2022/09/02 02:43:12;;;;;;;10.18;9.68;;;;;;;17.23;100.00;101086.00;5080080;28;20028;-62
2022/09/02 02:45:38;;;;;;;10.30;9.80;;;;;;;17.20;100.00;101083.72;5071392;28;20027;-62
2022/09/02 02:48:04;;;;;;;10.10;9.60;;;;;;;17.26;100.00;101091.78;5071688;28;20504;-66
2022/09/02 02:50:30;;;;;;;10.18;9.68;;;;;;;17.21;100.00;101094.25;5076334;28;20029;-63
2022/09/02 02:52:56;;;;;;;9.70;9.30;;;;;;;17.12;100.00;101095.47;5079483;28;20027;-62
2022/09/02 02:55:22;;;;;;;10.20;9.70;;;;;;;17.03;100.00;101091.31;5053285;28;20086;-62
2022/09/02 02:57:49;;;;;;;9.88;9.48;;;;;;;17.16;100.00;101091.34;5071539;28;20024;-62
2022/09/02 03:00:19;;;;;;;10.55;10.05;;;;;;;17.02;100.00;101097.69;5065190;28;20518;-62
2022/09/02 03:02:45;;;;;;;10.13;9.63;;;;;;;17.04;100.00;101096.50;5071292;28;20028;-62
2022/09/02 03:05:13;;;;;;;10.60;10.10;;;;;;;16.88;100.00;101093.34;5071125;28;20029;-62
2022/09/02 03:07:39;;;;;;;10.25;9.75;;;;;;;16.87;100.00;101094.38;5071011;28;20032;-62
2022/09/02 03:10:09;;;;;;;10.45;9.95;;;;;;;16.78;100.00;101089.19;5086009;28;20024;-62
2022/09/02 03:12:37;;;;;;;9.82;9.43;;;;;;;16.83;100.00;101092.09;5078346;28;20035;-62
2022/09/02 03:15:05;;;;;;;10.45;9.95;;;;;;;16.82;100.00;101105.72;5084097;28;20106;-62
2022/09/02 03:17:30;;;;;;;10.70;10.20;;;;;;;16.84;100.00;101114.38;5095388;28;20081;-63
2022/09/02 03:19:58;;;;;;;10.60;10.10;;;;;;;16.75;100.00;101108.38;5097125;28;20518;-63
2022/09/02 03:22:25;;;;;;;10.55;10.05;;;;;;;16.75;100.00;101108.38;5095331;28;20024;-62
2022/09/02 03:24:51;;;;;;;9.73;9.32;;;;;;;16.71;100.00;101104.44;5076772;28;20107;-62
2022/09/02 03:27:16;;;;;;;10.15;9.65;;;;;;;16.64;100.00;101106.22;5091294;28;20107;-61
2022/09/02 03:29:43;;;;;;;10.65;10.15;;;;;;;16.74;100.00;101114.72;5097977;28;20372;-62
2022/09/02 03:32:08;;;;;;;10.38;9.88;;;;;;;16.64;100.00;101105.41;5097539;28;20470;-63
2022/09/02 03:34:34;;;;;;;10.15;9.65;;;;;;;16.57;100.00;101116.09;5077741;28;20118;-63
2022/09/02 03:36:59;;;;;;;10.30;9.80;;;;;;;16.76;100.00;101110.00;5079604;28;20031;-62
2022/09/02 03:39:25;;;;;;;10.30;9.80;;;;;;;16.77;100.00;101111.66;5097955;28;20162;-62
2022/09/02 03:41:52;;;;;;;10.52;10.02;;;;;;;16.65;100.00;101102.50;5083023;28;20036;-62
2022/09/02 03:44:18;;;;;;;11.00;10.50;;;;;;;16.65;100.00;101091.78;5076971;28;20027;-63
2022/09/02 03:46:44;;;;;;;11.10;10.60;;;;;;;16.62;100.00;101088.72;5072774;28;20020;-62
2022/09/02 03:49:10;;;;;;;10.82;10.32;;;;;;;16.72;100.00;101103.41;5081813;28;20068;-64
2022/09/02 03:51:39;;;;;;;11.10;10.60;;;;;;;16.77;100.00;101111.66;5074002;28;20029;-65
2022/09/02 03:54:06;;;;;;;10.70;10.20;;;;;;;16.85;100.00;101105.28;5073339;28;20024;-65
2022/09/02 03:56:32;;;;;;;10.55;10.05;;;;;;;16.97;100.00;101106.38;5057552;28;20562;-62
2022/09/02 03:58:58;;;;;;;10.40;9.90;;;;;;;16.91;100.00;101114.38;5077068;28;20032;-63
2022/09/02 04:01:25;;;;;;;10.25;9.75;;;;;;;16.95;100.00;101123.66;5077335;28;20078;-63
2022/09/02 04:03:51;;;;;;;10.43;9.93;;;;;;;16.84;100.00;101122.41;5083187;28;20042;-63
2022/09/02 04:06:19;;;;;;;10.57;10.07;;;;;;;16.96;100.00;101131.50;5079929;28;20017;-63
2022/09/02 04:08:45;;;;;;;10.23;9.73;;;;;;;17.20;100.00;101129.31;5059255;28;20487;-63
2022/09/02 04:11:16;;;;;;;10.18;9.68;;;;;;;16.91;100.00;101133.97;5090933;28;20024;-63
2022/09/02 04:13:43;;;;;;;10.32;9.82;;;;;;;17.04;100.00;101135.84;5087096;28;20139;-63
2022/09/02 04:16:12;;;;;;;10.07;9.60;;;;;;;17.13;100.00;101135.47;5077288;28;20059;-63
2022/09/02 04:18:38;;;;;;;10.15;9.65;;;;;;;17.10;100.00;101135.03;5084224;28;20048;-64
2022/09/02 04:21:04;;;;;;;10.40;9.90;;;;;;;17.15;100.00;101139.81;5098492;28;20039;-64
2022/09/02 04:23:31;;;;;;;10.15;9.65;;;;;;;17.13;100.00;101142.69;5090936;28;20078;-63
2022/09/02 04:25:57;;;;;;;10.98;10.48;;;;;;;17.13;100.00;101145.38;5083785;28;20060;-62
2022/09/02 04:28:23;;;;;;;9.98;9.50;;;;;;;17.19;100.00;101149.94;5088961;28;20034;-63
2022/09/02 04:30:50;;;;;;;10.38;9.88;;;;;;;17.26;100.00;101150.78;5085892;28;20070;-63
2022/09/02 04:33:16;;;;;;;10.27;9.77;;;;;;;17.30;100.00;101146.63;5075115;28;20032;-63
2022/09/02 04:35:44;;;;;;;10.48;9.98;;;;;;;17.07;100.00;101146.19;5073787;28;20533;-63
2022/09/02 04:38:10;;;;;;;10.43;9.93;;;;;;;17.22;100.00;101144.16;5073961;28;20028;-63
2022/09/02 04:40:42;;;;;;;10.73;10.23;;;;;;;17.34;100.00;101152.44;5072999;28;20409;-65
2022/09/02 04:43:08;;;;;;;10.85;10.35;;;;;;;17.18;100.00;101153.63;5076460;28;20116;-63
2022/09/02 04:45:34;;;;;;;11.10;10.60;;;;;;;17.09;100.00;101152.97;5070837;28;20914;-64
2022/09/02 04:48:00;;;;;;;10.50;10.00;;;;;;;17.18;100.00;101153.63;5073056;28;20053;-64
2022/09/02 04:50:25;;;;;;;10.60;10.10;;;;;;;17.06;100.00;101150.72;5073000;28;20021;-63
2022/09/02 04:52:51;;;;;;;10.60;10.10;;;;;;;17.19;100.00;101147.25;5073109;28;20044;-63
2022/09/02 04:55:16;;;;;;;10.32;9.82;;;;;;;17.23;100.00;101143.13;5073467;28;20020;-63
2022/09/02 04:57:42;;;;;;;10.68;10.18;;;;;;;17.37;100.00;101139.44;5073369;28;20147;-63
2022/09/02 05:00:08;;;;;;;10.52;10.02;;;;;;;17.34;100.00;101137.16;5072179;28;20098;-64
2022/09/02 05:02:34;;;;;;;10.68;10.18;;;;;;;17.57;100.00;101138.63;5077147;28;20027;-63
2022/09/02 05:05:00;;;;;;;10.20;9.70;;;;;;;17.64;100.00;101136.78;5081122;28;20387;-63
2022/09/02 05:07:25;;;;;;;9.85;9.40;;;;;;;17.58;100.00;101133.06;5077995;28;20024;-63
2022/09/02 05:10:01;;;;;;;10.40;9.90;;;;;;;17.54;100.00;101134.47;5091970;28;20032;-63
2022/09/02 05:12:27;;;;;;;10.30;9.80;;;;;;;17.24;100.00;101133.22;5085587;28;20115;-63
2022/09/02 05:14:55;;;;;;;10.85;10.35;;;;;;;17.45;100.00;101141.09;5093238;28;20103;-63
2022/09/02 05:17:21;;;;;;;10.30;9.80;;;;;;;17.48;100.00;101135.34;5093268;28;20038;-62
2022/09/02 05:19:47;;;;;;;9.98;9.57;;;;;;;17.51;100.00;101134.09;5092319;28;20056;-64
2022/09/02 05:22:13;;;;;;;10.55;10.05;;;;;;;17.54;100.00;101130.97;5083597;28;20098;-63
2022/09/02 05:24:39;;;;;;;10.30;9.80;;;;;;;17.54;100.00;101136.34;5075966;28;20022;-63
2022/09/02 05:27:04;;;;;;;10.05;9.60;;;;;;;17.62;100.00;101131.59;5072743;28;20020;-63
2022/09/02 05:29:30;;;;;;;10.52;10.02;;;;;;;17.81;100.00;101130.00;5073410;28;20107;-63
2022/09/02 05:31:55;;;;;;;10.65;10.15;;;;;;;17.78;100.00;101125.03;5092822;28;20105;-63
2022/09/02 05:34:21;;;;;;;10.45;9.95;;;;;;;17.76;100.00;101131.63;5093159;28;20124;-64
2022/09/02 05:36:46;;;;;;;10.48;9.98;;;;;;;17.71;100.00;101124.22;5092407;28;20020;-63
2022/09/02 05:39:12;;;;;;;10.60;10.10;;;;;;;17.65;100.00;101130.38;5084435;28;20028;-64
2022/09/02 05:41:38;;;;;;;10.60;10.10;;;;;;;17.85;100.00;101128.56;5071915;28;20046;-63
2022/09/02 05:44:05;;;;;;;10.88;10.38;;;;;;;17.89;100.00;101129.78;5071936;28;20472;-63
2022/09/02 05:46:31;;;;;;;10.77;10.27;;;;;;;18.11;100.00;101137.59;5072545;28;20032;-63
2022/09/02 05:49:07;;;;;;;9.90;9.50;;;;;;;17.72;100.00;101136.59;5073124;28;20106;-63
2022/09/02 05:51:54;;;;;;;10.90;10.40;;;;;;;17.97;100.00;101133.28;5092672;28;20085;-64
2022/09/02 05:54:40;;;;;;;10.57;10.07;;;;;;;18.11;100.00;101137.59;5079087;28;20081;-63
2022/09/02 05:57:10;;;;;;;10.15;9.65;;;;;;;17.90;100.00;101138.66;5074491;28;20067;-64
2022/09/02 05:59:41;;;;;;;9.75;9.35;;;;;;;18.06;100.00;101140.06;5062384;28;20023;-63
2022/09/02 06:02:08;;;;;;;10.63;10.13;;;;;;;18.10;100.00;101142.13;5070990;28;20033;-63
2022/09/02 06:04:46;;;;;;;10.43;9.93;;;;;;;17.76;100.00;101145.88;5082547;28;20450;-63
2022/09/02 06:07:13;;;;;;;10.05;9.63;;;;;;;17.97;100.00;101152.06;5089299;28;20093;-62
2022/09/02 06:09:39;;;;;;;10.90;10.40;;;;;;;18.03;100.00;101146.69;5087284;28;20545;-63
2022/09/02 06:12:06;;;;;;;10.45;9.95;;;;;;;18.29;100.00;101151.22;5077989;28;20474;-63
2022/09/02 06:14:32;;;;;;;10.55;10.05;;;;;;;18.32;100.00;101153.47;5081377;28;20030;-63
2022/09/02 06:16:58;;;;;;;10.35;9.85;;;;;;;18.35;100.00;101153.03;5086900;28;20020;-63
2022/09/02 06:19:25;;;;;;;10.20;9.70;;;;;;;18.37;100.00;101152.84;5083330;28;20024;-63
2022/09/02 06:21:54;;;;;;;10.43;9.93;;;;;;;18.29;100.00;101164.63;5077605;28;20050;-63
2022/09/02 06:24:20;;;;;;;10.77;10.27;;;;;;;18.21;100.00;101168.38;5078586;28;20027;-63
2022/09/02 06:26:46;;;;;;;9.90;9.50;;;;;;;18.24;100.00;101169.81;5078621;28;20028;-63
2022/09/02 06:29:12;;;;;;;10.00;9.60;;;;;;;18.39;100.00;101175.75;5068635;28;20546;-63
2022/09/02 06:31:44;;;;;;;10.30;9.80;;;;;;;18.32;100.00;101171.44;5083003;28;20024;-63
2022/09/02 06:34:12;;;;;;;10.70;10.20;;;;;;;18.36;100.00;101175.34;5079979;28;20371;-63
2022/09/02 06:36:39;;;;;;;10.40;9.90;;;;;;;18.56;100.00;101177.97;5083920;28;20379;-62
2022/09/02 06:39:04;;;;;;;10.30;9.80;;;;;;;18.56;100.00;101180.66;5092089;28;20028;-62
2022/09/02 06:41:32;;;;;;;9.85;9.45;;;;;;;18.78;100.00;101177.53;5073751;28;20518;-62
2022/09/02 06:44:03;;;;;;;10.27;9.77;;;;;;;18.58;100.00;101181.28;5071143;28;20024;-61
2022/09/02 06:46:32;;;;;;;10.43;9.93;;;;;;;18.85;100.00;101182.06;5066500;28;20025;-63
2022/09/02 06:48:58;;;;;;;10.65;10.15;;;;;;;18.83;100.00;101179.56;5061698;28;20040;-64
2022/09/02 06:51:31;;;;;;;11.52;10.95;;;;;;;18.58;100.00;101182.13;5068824;28;20035;-64
2022/09/02 06:53:58;;;;;;;11.75;11.15;;;;;;;18.80;100.00;101179.16;5063803;28;20028;-67
2022/09/02 06:56:25;;;;;;;11.75;11.15;;;;;;;18.85;100.00;101176.66;5066903;28;20107;-65
2022/09/02 06:58:51;;;;;;;11.43;10.93;;;;;;;19.14;100.00;101178.81;5074232;28;20078;-65
2022/09/02 07:01:23;;;;;;;11.35;10.85;;;;;;;19.21;100.00;101189.53;5081151;28;20032;-67
2022/09/02 07:06:42;;;;;;;11.43;10.93;;;;;;;19.32;100.00;101178.94;5062740;28;20027;-64
2022/09/02 07:09:10;;;;;;;12.15;11.55;;;;;;;19.52;100.00;101170.69;5067983;28;20028;-67
2022/09/02 07:11:36;;;;;;;11.02;10.52;;;;;;;19.56;100.00;101180.00;5083551;28;20020;-67
2022/09/02 07:14:02;;;;;;;11.25;10.75;;;;;;;19.87;100.00;101175.66;5062936;28;20098;-67
2022/09/02 07:16:32;;;;;;;10.93;10.43;;;;;;;20.00;100.00;101175.53;5068434;28;20024;-67
2022/09/02 07:19:00;;;;;;;11.43;10.93;;;;;;;20.10;100.00;101177.72;5072957;28;20016;-66
2022/09/02 07:21:27;;;;;;;11.68;11.13;;;;;;;19.98;100.00;101182.19;5064933;28;20039;-66
2022/09/02 07:23:54;;;;;;;11.07;10.57;;;;;;;20.12;100.00;101178.31;5074656;28;20017;-67
2022/09/02 07:26:20;;;;;;;11.15;10.65;;;;;;;20.21;100.00;101168.91;5070854;28;20079;-67
2022/09/02 07:28:46;;;;;;;11.10;10.60;;;;;;;19.34;100.00;101186.78;5069117;28;20535;-67
2022/09/02 07:31:13;;;;;;;10.80;10.30;;;;;;;19.68;100.00;101177.44;5069415;28;20097;-67
2022/09/02 07:33:39;;;;;;;11.30;10.80;;;;;;;19.98;100.00;101184.88;5065460;28;20115;-66
2022/09/02 07:36:05;;;;;;;11.23;10.73;;;;;;;19.37;100.00;101185.50;5072277;28;20088;-66
2022/09/02 07:38:32;;;;;;;11.35;10.85;;;;;;;19.03;100.00;101179.50;5065854;28;20044;-65
2022/09/02 07:40:59;;;;;;;11.20;10.70;;;;;;;18.57;100.00;101176.94;5063711;28;20028;-67
2022/09/02 07:43:26;;;;;;;12.48;11.88;;;;;;;18.12;100.00;101169.59;5070803;28;20029;-66
2022/09/02 07:45:54;;;;;;;10.93;10.43;;;;;;;19.29;100.00;101165.06;5063169;28;20512;-67
2022/09/02 07:48:21;;;;;;;11.15;10.65;;;;;;;19.62;100.00;101161.38;5068198;28;20049;-66
2022/09/02 07:50:47;;;;;;;11.13;10.63;;;;;;;19.97;100.00;101162.50;5066922;28;20062;-65
2022/09/02 07:53:14;;;;;;;11.10;10.60;;;;;;;19.99;100.00;101157.72;5069380;28;20056;-66
2022/09/02 07:55:40;;;;;;;11.40;10.90;;;;;;;19.93;100.00;101164.00;5068615;28;20369;-65
2022/09/02 07:58:06;;;;;;;11.30;10.80;;;;;;;20.02;100.00;101162.66;5070469;28;20028;-66
2022/09/02 08:00:31;;;;;;;10.65;10.15;;;;;;;19.82;100.00;101162.84;5064981;28;20035;-67
2022/09/02 08:02:57;;;;;;;11.00;10.50;;;;;;;19.98;100.00;101176.81;5072401;28;20025;-66
2022/09/02 08:05:23;;;;;;;11.35;10.85;;;;;;;19.84;100.00;101171.53;5070109;28;20028;-66
2022/09/02 08:07:49;;;;;;;11.10;10.60;;;;;;;19.99;100.00;101163.13;5070175;28;20032;-65
2022/09/02 08:10:15;;;;;;;11.45;10.95;;;;;;;19.75;100.00;101167.44;5052629;28;20468;-67
2022/09/02 08:12:42;;;;;;;11.25;10.75;;;;;;;19.73;100.00;101160.66;5067663;28;20087;-67
2022/09/02 08:15:10;;;;;;;11.10;10.60;;;;;;;19.00;100.00;101171.84;5059288;28;20060;-67
2022/09/02 08:17:39;;;;;;;11.02;10.52;;;;;;;18.28;100.00;101162.97;5075907;28;20410;-66
2022/09/02 08:20:10;;;;;;;11.30;10.80;;;;;;;18.89;100.00;101170.66;5070404;28;20099;-67
2022/09/02 08:22:36;;;;;;;10.25;9.75;;;;;;;19.04;100.00;101175.78;5069084;28;20048;-67
2022/09/02 08:25:03;;;;;;;10.98;10.48;;;;;;;18.91;100.00;101176.66;5080444;28;20067;-66
2022/09/02 08:27:29;;;;;;;11.13;10.63;;;;;;;19.02;100.00;101176.00;5064894;28;20028;-66
2022/09/02 08:29:54;;;;;;;11.10;10.60;;;;;;;18.43;100.00;101170.78;5068322;28;20516;-67
2022/09/02 08:32:20;;;;;;;11.43;10.93;;;;;;;18.71;100.00;101167.84;5076588;28;20474;-66
2022/09/02 08:34:45;;;;;;;11.25;10.75;;;;;;;19.99;100.00;101176.59;5069648;28;20025;-66
2022/09/02 08:37:11;;;;;;;11.45;10.95;;;;;;;20.53;100.00;101177.72;5072277;28;20480;-66
2022/09/02 08:39:37;;;;;;;11.00;10.50;;;;;;;20.54;100.00;101178.53;5059748;28;20024;-66
2022/09/02 08:42:20;;;;;;;11.32;10.82;;;;;;;20.73;100.00;101182.06;5076625;28;20044;-66
2022/09/02 08:44:47;;;;;;;11.15;10.65;;;;;;;20.25;100.00;101175.50;5071106;28;20082;-66
2022/09/02 08:47:21;;;;;;;10.98;10.48;;;;;;;20.11;100.00;101169.41;5075078;28;20024;-67
2022/09/02 08:49:51;;;;;;;11.18;10.68;;;;;;;19.99;100.00;101168.50;5073374;28;20114;-67
2022/09/02 08:52:42;;;;;;;10.65;10.15;;;;;;;20.83;100.00;101167.00;5067075;28;20111;-63
2022/09/02 08:55:16;;;;;;;10.07;9.63;;;;;;;20.67;100.00;101164.91;5080321;28;20020;-63
2022/09/02 08:57:44;;;;;;;10.68;10.18;;;;;;;20.60;100.00;101169.56;5074827;28;20029;-62
2022/09/02 09:00:10;;;;;;;10.60;10.10;;;;;;;21.52;100.00;101175.63;5073429;28;20041;-62
2022/09/02 09:02:57;;;;;;;10.73;10.23;;;;;;;21.47;100.00;101176.31;5070903;28;20028;-63
2022/09/02 09:05:41;;;;;;;10.27;9.77;;;;;;;21.31;100.00;101176.97;5071130;28;20021;-63
2022/09/02 09:08:46;;;;;;;10.77;10.27;;;;;;;21.29;100.00;101165.56;5071990;28;20479;-64
2022/09/02 09:11:14;;;;;;;10.38;9.88;;;;;;;21.62;100.00;101166.97;5068369;28;20034;-62
2022/09/02 09:14:04;;;;;;;10.35;9.85;;;;;;;21.66;100.00;101168.94;5071346;28;20468;-62
2022/09/02 09:16:46;;;;;;;10.60;10.10;;;;;;;21.51;100.00;101163.97;5071841;28;20028;-63
2022/09/02 09:19:15;;;;;;;10.35;9.85;;;;;;;21.22;100.00;101168.31;5063724;28;20044;-64
2022/09/02 09:21:43;;;;;;;10.80;10.30;;;;;;;20.25;100.00;101158.50;5065303;28;20176;-65
2022/09/02 09:24:25;;;;;;;10.88;10.38;;;;;;;21.02;100.00;101170.50;5060953;28;20526;-67
2022/09/02 09:26:55;;;;;;;11.27;10.77;;;;;;;20.21;100.00;101168.09;5071305;28;20071;-67
2022/09/02 09:29:21;;;;;;;10.65;10.15;;;;;;;20.50;100.00;101170.09;5053859;28;20043;-65
2022/09/02 09:31:59;;;;;;;11.20;10.70;;;;;;;21.06;100.00;101173.53;5077279;28;20484;-66
2022/09/02 09:35:06;;;;;;;11.55;11.05;;;;;;;21.14;100.00;101174.03;5078651;28;20411;-66
2022/09/02 09:37:31;;;;;;;10.88;10.38;;;;;;;20.97;100.00;101178.44;5066174;28;20037;-66
2022/09/02 09:39:57;;;;;;;11.18;10.68;;;;;;;20.52;100.00;101180.66;5075990;28;20036;-67
2022/09/02 09:42:35;;;;;;;11.35;10.85;;;;;;;20.87;100.00;101176.28;5074386;28;20047;-64
2022/09/02 09:45:17;;;;;;;11.40;10.90;;;;;;;20.95;100.00;101177.84;5070766;28;20028;-64
2022/09/02 09:47:42;;;;;;;11.25;10.75;;;;;;;21.31;100.00;101184.25;5068714;28;20049;-66
2022/09/02 09:50:17;;;;;;;10.80;10.30;;;;;;;21.33;100.00;101179.44;5066379;28;20539;-65
2022/09/02 09:52:44;;;;;;;10.52;10.02;;;;;;;20.96;100.00;101180.31;5068631;28;20028;-65
2022/09/02 09:55:20;;;;;;;11.02;10.52;;;;;;;20.29;100.00;101173.19;5068048;28;20024;-64
2022/09/02 09:57:48;;;;;;;11.00;10.50;;;;;;;20.93;100.00;101174.53;5077926;28;20394;-65
2022/09/02 10:00:26;;;;;;;11.20;10.70;;;;;;;20.56;100.00;101177.25;5076492;28;20092;-64
2022/09/02 10:02:57;;;;;;;11.07;10.57;;;;;;;20.69;100.00;101171.72;5076497;28;20031;-64
2022/09/02 10:05:25;;;;;;;11.88;11.27;;;;;;;20.98;100.00;101170.13;5069306;28;20016;-65
2022/09/02 10:08:02;;;;;;;11.27;10.77;;;;;;;19.56;100.00;101174.63;5075360;28;20561;-66
2022/09/02 10:10:29;;;;;;;11.75;11.20;;;;;;;20.58;100.00;101172.50;5049044;28;20509;-66
2022/09/02 10:13:15;;;;;;;10.95;10.45;;;;;;;20.22;100.00;101172.44;5071594;28;20817;-66
2022/09/02 10:16:12;;;;;;;10.57;10.07;;;;;;;20.18;100.00;101168.53;5072001;28;20035;-67
2022/09/02 10:18:52;;;;;;;10.95;10.45;;;;;;;21.46;100.00;101166.56;5081716;28;20039;-66
2022/09/02 10:22:14;;;;;;;11.32;10.82;;;;;;;22.21;100.00;101163.25;5067496;28;20032;-67
2022/09/02 10:24:58;;;;;;;11.55;11.05;;;;;;;21.72;100.00;101167.19;4975826;28;20038;-67
2022/09/02 10:27:39;;;;;;;11.23;10.73;;;;;;;20.92;100.00;101171.00;4985808;28;20400;-67
2022/09/02 10:30:05;;;;;;;12.25;11.65;;;;;;;20.77;100.00;101164.38;5017736;28;20362;-67
2022/09/02 10:32:49;;;;;;;11.98;11.38;;;;;;;22.09;100.00;101167.84;5065364;28;20146;-66
2022/09/02 10:35:28;;;;;;;11.50;11.00;;;;;;;22.55;100.00;101168.88;5059294;28;20028;-66
2022/09/02 10:38:11;;;;;;;11.30;10.80;;;;;;;22.28;100.00;101163.97;5068875;28;20024;-65
2022/09/02 10:40:43;;;;;;;11.30;10.80;;;;;;;22.67;100.00;101174.22;5067806;28;20154;-65
2022/09/02 10:43:50;;;;;;;11.48;10.98;;;;;;;22.58;100.00;101168.38;5070685;28;20046;-65
2022/09/02 10:46:19;;;;;;;11.15;10.65;;;;;;;22.43;100.00;101160.75;5039677;28;20076;-65
2022/09/02 10:49:04;;;;;;;11.65;11.15;;;;;;;22.50;100.00;101166.88;5068601;28;20931;-66
2022/09/02 10:51:39;;;;;;;11.73;11.23;;;;;;;22.66;100.00;101168.00;5057358;28;20020;-65
2022/09/02 10:54:17;;;;;;;10.90;10.40;;;;;;;22.14;100.00;101167.97;5070573;28;20040;-66
2022/09/02 10:56:59;;;;;;;10.73;10.23;;;;;;;21.92;100.00;101166.88;5082306;28;20070;-65
2022/09/02 10:59:32;;;;;;;11.18;10.68;;;;;;;22.25;100.00;101158.19;5064036;28;20024;-65
2022/09/02 11:02:15;;;;;;;12.13;11.52;;;;;;;22.17;100.00;101156.66;5066995;28;20168;-66
2022/09/02 11:04:59;;;;;;;10.85;10.35;;;;;;;22.28;100.00;101163.97;5065551;28;20025;-66
2022/09/02 11:07:46;;;;;;;10.95;10.45;;;;;;;22.59;100.00;101168.13;5072265;28;20028;-65
2022/09/02 11:10:21;;;;;;;11.02;10.52;;;;;;;22.69;100.00;101169.41;5071974;28;20044;-66
2022/09/02 11:12:54;;;;;;;10.80;10.30;;;;;;;22.68;100.00;101154.22;5078912;28;20038;-67
2022/09/02 11:15:50;;;;;;;11.20;10.70;;;;;;;22.77;100.00;101166.34;5072911;28;20032;-67
2022/09/02 11:18:42;;;;;;;11.48;10.98;;;;;;;22.69;100.00;101164.81;5039508;28;20036;-67
2022/09/02 11:21:33;;;;;;;11.10;10.60;;;;;;;22.34;100.00;101167.59;5070228;28;20111;-65